sensor_id;sensor_type;location;lat;lon;timestamp;P1;durP1;ratioP1;P2;durP2;ratioP2
36501;SDS011;25393;46.108;3.390;2023-06-04T00:00:15;6.72;;;5.65;;
36501;SDS011;25393;46.108;3.390;2023-06-04T00:02:45;5.38;;;4.90;;
36501;SDS011;25393;46.108;3.390;2023-06-04T00:05:15;6.57;;;5.95;;
36501;SDS011;25393;46.108;3.390;2023-06-04T00:07:41;7.70;;;5.65;;
36501;SDS011;25393;46.108;3.390;2023-06-04T00:10:12;8.40;;;5.43;;
36501;SDS011;25393;46.108;3.390;2023-06-04T00:12:40;7.63;;;5.93;;
36501;SDS011;25393;46.108;3.390;2023-06-04T00:15:07;6.47;;;5.88;;
36501;SDS011;25393;46.108;3.390;2023-06-04T00:17:33;7.03;;;6.20;;
36501;SDS011;25393;46.108;3.390;2023-06-04T00:20:01;7.47;;;5.90;;
36501;SDS011;25393;46.108;3.390;2023-06-04T00:22:28;7.13;;;6.07;;
36501;SDS011;25393;46.108;3.390;2023-06-04T00:24:54;6.53;;;2.83;;
36501;SDS011;25393;46.108;3.390;2023-06-04T00:27:21;6.70;;;2.53;;
36501;SDS011;25393;46.108;3.390;2023-06-04T00:29:47;7.32;;;2.75;;
36501;SDS011;25393;46.108;3.390;2023-06-04T00:32:17;7.25;;;4.28;;
36501;SDS011;25393;46.108;3.390;2023-06-04T00:34:51;5.88;;;3.67;;
36501;SDS011;25393;46.108;3.390;2023-06-04T00:37:18;6.85;;;3.65;;
36501;SDS011;25393;46.108;3.390;2023-06-04T00:39:45;7.22;;;3.85;;
36501;SDS011;25393;46.108;3.390;2023-06-04T00:42:12;10.30;;;4.28;;
36501;SDS011;25393;46.108;3.390;2023-06-04T00:44:38;4.10;;;2.85;;
36501;SDS011;25393;46.108;3.390;2023-06-04T00:47:18;7.60;;;3.28;;
36501;SDS011;25393;46.108;3.390;2023-06-04T00:49:47;3.92;;;2.45;;
36501;SDS011;25393;46.108;3.390;2023-06-04T00:52:14;4.70;;;2.60;;
36501;SDS011;25393;46.108;3.390;2023-06-04T00:54:42;4.82;;;2.47;;
36501;SDS011;25393;46.108;3.390;2023-06-04T00:57:09;7.43;;;2.58;;
36501;SDS011;25393;46.108;3.390;2023-06-04T00:59:36;5.85;;;2.55;;
36501;SDS011;25393;46.108;3.390;2023-06-04T01:02:11;5.78;;;3.00;;
36501;SDS011;25393;46.108;3.390;2023-06-04T01:07:37;4.32;;;2.55;;
36501;SDS011;25393;46.108;3.390;2023-06-04T01:10:06;4.70;;;2.60;;
36501;SDS011;25393;46.108;3.390;2023-06-04T01:12:34;4.57;;;2.50;;
36501;SDS011;25393;46.108;3.390;2023-06-04T01:15:00;5.95;;;2.67;;
36501;SDS011;25393;46.108;3.390;2023-06-04T01:17:29;8.85;;;2.88;;
36501;SDS011;25393;46.108;3.390;2023-06-04T01:25:50;7.18;;;2.70;;
36501;SDS011;25393;46.108;3.390;2023-06-04T01:28:21;9.20;;;2.60;;
36501;SDS011;25393;46.108;3.390;2023-06-04T01:30:51;3.97;;;2.50;;
36501;SDS011;25393;46.108;3.390;2023-06-04T01:33:21;10.88;;;2.92;;
36501;SDS011;25393;46.108;3.390;2023-06-04T01:35:52;4.13;;;2.72;;
36501;SDS011;25393;46.108;3.390;2023-06-04T01:38:21;6.53;;;2.58;;
36501;SDS011;25393;46.108;3.390;2023-06-04T01:40:51;5.82;;;2.30;;
36501;SDS011;25393;46.108;3.390;2023-06-04T01:43:22;4.80;;;2.30;;
36501;SDS011;25393;46.108;3.390;2023-06-04T01:45:52;3.42;;;2.20;;
36501;SDS011;25393;46.108;3.390;2023-06-04T01:48:20;5.95;;;2.53;;
36501;SDS011;25393;46.108;3.390;2023-06-04T01:50:47;5.35;;;3.42;;
36501;SDS011;25393;46.108;3.390;2023-06-04T01:53:15;4.65;;;2.70;;
36501;SDS011;25393;46.108;3.390;2023-06-04T01:55:42;6.50;;;2.35;;
36501;SDS011;25393;46.108;3.390;2023-06-04T01:58:09;3.90;;;2.65;;
36501;SDS011;25393;46.108;3.390;2023-06-04T02:00:36;5.07;;;3.20;;
36501;SDS011;25393;46.108;3.390;2023-06-04T02:03:02;5.13;;;2.35;;
36501;SDS011;25393;46.108;3.390;2023-06-04T02:05:29;5.57;;;2.55;;
36501;SDS011;25393;46.108;3.390;2023-06-04T02:07:56;4.40;;;2.42;;
36501;SDS011;25393;46.108;3.390;2023-06-04T02:10:23;5.63;;;2.58;;
36501;SDS011;25393;46.108;3.390;2023-06-04T02:15:24;5.47;;;2.45;;
36501;SDS011;25393;46.108;3.390;2023-06-04T02:17:56;4.75;;;2.55;;
36501;SDS011;25393;46.108;3.390;2023-06-04T02:20:29;9.38;;;2.40;;
36501;SDS011;25393;46.108;3.390;2023-06-04T02:22:55;3.92;;;2.20;;
36501;SDS011;25393;46.108;3.390;2023-06-04T02:25:22;3.13;;;2.58;;
36501;SDS011;25393;46.108;3.390;2023-06-04T02:27:49;13.27;;;2.65;;
36501;SDS011;25393;46.108;3.390;2023-06-04T02:30:19;12.23;;;2.33;;
36501;SDS011;25393;46.108;3.390;2023-06-04T02:32:48;7.47;;;3.75;;
36501;SDS011;25393;46.108;3.390;2023-06-04T02:35:18;7.60;;;3.05;;
36501;SDS011;25393;46.108;3.390;2023-06-04T02:37:50;3.70;;;2.40;;
36501;SDS011;25393;46.108;3.390;2023-06-04T02:40:20;5.03;;;2.58;;
36501;SDS011;25393;46.108;3.390;2023-06-04T02:42:49;5.43;;;4.97;;
36501;SDS011;25393;46.108;3.390;2023-06-04T02:45:16;5.38;;;2.78;;
36501;SDS011;25393;46.108;3.390;2023-06-04T02:47:42;4.40;;;2.33;;
36501;SDS011;25393;46.108;3.390;2023-06-04T02:50:09;2.10;;;1.83;;
36501;SDS011;25393;46.108;3.390;2023-06-04T02:52:36;3.75;;;2.53;;
36501;SDS011;25393;46.108;3.390;2023-06-04T02:55:09;2.85;;;1.98;;
36501;SDS011;25393;46.108;3.390;2023-06-04T02:57:41;3.65;;;2.22;;
36501;SDS011;25393;46.108;3.390;2023-06-04T03:00:10;6.60;;;2.10;;
36501;SDS011;25393;46.108;3.390;2023-06-04T03:02:43;4.20;;;3.17;;
36501;SDS011;25393;46.108;3.390;2023-06-04T03:05:11;8.60;;;2.58;;
36501;SDS011;25393;46.108;3.390;2023-06-04T03:07:40;8.98;;;3.90;;
36501;SDS011;25393;46.108;3.390;2023-06-04T03:10:10;6.03;;;3.30;;
36501;SDS011;25393;46.108;3.390;2023-06-04T03:12:37;6.13;;;2.58;;
36501;SDS011;25393;46.108;3.390;2023-06-04T03:15:04;5.60;;;2.70;;
36501;SDS011;25393;46.108;3.390;2023-06-04T03:17:32;6.63;;;2.58;;
36501;SDS011;25393;46.108;3.390;2023-06-04T03:19:58;7.75;;;2.60;;
36501;SDS011;25393;46.108;3.390;2023-06-04T03:22:25;5.88;;;2.40;;
36501;SDS011;25393;46.108;3.390;2023-06-04T03:24:52;6.28;;;2.53;;
36501;SDS011;25393;46.108;3.390;2023-06-04T03:27:21;5.20;;;2.97;;
36501;SDS011;25393;46.108;3.390;2023-06-04T03:29:48;6.72;;;3.53;;
36501;SDS011;25393;46.108;3.390;2023-06-04T03:32:15;7.93;;;6.05;;
36501;SDS011;25393;46.108;3.390;2023-06-04T03:34:42;5.40;;;4.90;;
36501;SDS011;25393;46.108;3.390;2023-06-04T03:37:09;7.65;;;5.78;;
36501;SDS011;25393;46.108;3.390;2023-06-04T03:39:36;6.43;;;5.50;;
36501;SDS011;25393;46.108;3.390;2023-06-04T03:42:03;11.35;;;3.67;;
36501;SDS011;25393;46.108;3.390;2023-06-04T03:44:30;5.35;;;2.58;;
36501;SDS011;25393;46.108;3.390;2023-06-04T03:46:57;3.97;;;2.50;;
36501;SDS011;25393;46.108;3.390;2023-06-04T03:49:27;4.38;;;2.42;;
36501;SDS011;25393;46.108;3.390;2023-06-04T03:51:57;9.38;;;2.90;;
36501;SDS011;25393;46.108;3.390;2023-06-04T03:54:23;4.38;;;2.50;;
36501;SDS011;25393;46.108;3.390;2023-06-04T03:56:51;6.28;;;2.50;;
36501;SDS011;25393;46.108;3.390;2023-06-04T03:59:18;8.73;;;2.70;;
36501;SDS011;25393;46.108;3.390;2023-06-04T04:01:44;6.05;;;2.33;;
36501;SDS011;25393;46.108;3.390;2023-06-04T04:04:11;5.75;;;2.63;;
36501;SDS011;25393;46.108;3.390;2023-06-04T04:06:38;6.18;;;2.92;;
36501;SDS011;25393;46.108;3.390;2023-06-04T04:09:04;4.78;;;2.75;;
36501;SDS011;25393;46.108;3.390;2023-06-04T04:11:32;4.72;;;2.45;;
36501;SDS011;25393;46.108;3.390;2023-06-04T04:13:59;5.40;;;2.17;;
36501;SDS011;25393;46.108;3.390;2023-06-04T04:16:30;6.43;;;2.65;;
36501;SDS011;25393;46.108;3.390;2023-06-04T04:18:59;5.78;;;2.83;;
36501;SDS011;25393;46.108;3.390;2023-06-04T04:21:28;5.65;;;2.47;;
36501;SDS011;25393;46.108;3.390;2023-06-04T04:23:58;8.32;;;2.50;;
36501;SDS011;25393;46.108;3.390;2023-06-04T04:26:25;7.95;;;2.42;;
36501;SDS011;25393;46.108;3.390;2023-06-04T04:28:54;8.60;;;2.70;;
36501;SDS011;25393;46.108;3.390;2023-06-04T04:31:29;3.65;;;2.50;;
36501;SDS011;25393;46.108;3.390;2023-06-04T04:33:58;9.07;;;3.53;;
36501;SDS011;25393;46.108;3.390;2023-06-04T04:36:29;7.03;;;2.70;;
36501;SDS011;25393;46.108;3.390;2023-06-04T04:38:56;7.15;;;6.13;;
36501;SDS011;25393;46.108;3.390;2023-06-04T04:41:24;9.40;;;2.85;;
36501;SDS011;25393;46.108;3.390;2023-06-04T04:43:54;3.58;;;2.67;;
36501;SDS011;25393;46.108;3.390;2023-06-04T04:46:29;5.80;;;3.63;;
36501;SDS011;25393;46.108;3.390;2023-06-04T04:48:56;5.88;;;4.32;;
36501;SDS011;25393;46.108;3.390;2023-06-04T04:51:26;5.55;;;4.05;;
36501;SDS011;25393;46.108;3.390;2023-06-04T04:53:55;5.00;;;4.03;;
36501;SDS011;25393;46.108;3.390;2023-06-04T04:56:22;6.68;;;4.60;;
36501;SDS011;25393;46.108;3.390;2023-06-04T04:58:48;7.32;;;4.28;;
36501;SDS011;25393;46.108;3.390;2023-06-04T05:01:15;4.95;;;3.33;;
36501;SDS011;25393;46.108;3.390;2023-06-04T05:03:42;5.80;;;2.80;;
36501;SDS011;25393;46.108;3.390;2023-06-04T05:06:08;3.70;;;2.42;;
36501;SDS011;25393;46.108;3.390;2023-06-04T05:08:35;7.60;;;2.75;;
36501;SDS011;25393;46.108;3.390;2023-06-04T05:11:02;7.70;;;2.53;;
36501;SDS011;25393;46.108;3.390;2023-06-04T05:13:30;8.27;;;2.92;;
36501;SDS011;25393;46.108;3.390;2023-06-04T05:15:57;7.68;;;3.42;;
36501;SDS011;25393;46.108;3.390;2023-06-04T05:18:25;4.88;;;3.08;;
36501;SDS011;25393;46.108;3.390;2023-06-04T05:20:57;4.60;;;3.10;;
36501;SDS011;25393;46.108;3.390;2023-06-04T05:23:32;7.25;;;2.60;;
36501;SDS011;25393;46.108;3.390;2023-06-04T05:26:04;8.93;;;3.05;;
36501;SDS011;25393;46.108;3.390;2023-06-04T05:28:31;5.05;;;2.97;;
36501;SDS011;25393;46.108;3.390;2023-06-04T05:31:04;9.73;;;3.00;;
36501;SDS011;25393;46.108;3.390;2023-06-04T05:33:34;4.28;;;2.72;;
36501;SDS011;25393;46.108;3.390;2023-06-04T05:36:05;7.10;;;3.05;;
36501;SDS011;25393;46.108;3.390;2023-06-04T05:38:32;6.93;;;2.97;;
36501;SDS011;25393;46.108;3.390;2023-06-04T05:40:59;7.03;;;3.22;;
36501;SDS011;25393;46.108;3.390;2023-06-04T05:43:28;4.93;;;2.90;;
36501;SDS011;25393;46.108;3.390;2023-06-04T05:45:54;7.40;;;3.17;;
36501;SDS011;25393;46.108;3.390;2023-06-04T05:48:21;9.43;;;2.85;;
36501;SDS011;25393;46.108;3.390;2023-06-04T05:50:48;4.85;;;2.63;;
36501;SDS011;25393;46.108;3.390;2023-06-04T05:53:15;6.35;;;2.72;;
36501;SDS011;25393;46.108;3.390;2023-06-04T05:55:42;6.15;;;2.75;;
36501;SDS011;25393;46.108;3.390;2023-06-04T05:58:09;7.43;;;3.15;;
36501;SDS011;25393;46.108;3.390;2023-06-04T06:00:35;5.03;;;3.30;;
36501;SDS011;25393;46.108;3.390;2023-06-04T06:03:05;6.00;;;2.70;;
36501;SDS011;25393;46.108;3.390;2023-06-04T06:05:36;6.22;;;3.00;;
36501;SDS011;25393;46.108;3.390;2023-06-04T06:08:05;7.75;;;3.15;;
36501;SDS011;25393;46.108;3.390;2023-06-04T06:10:36;7.82;;;2.97;;
36501;SDS011;25393;46.108;3.390;2023-06-04T06:13:05;3.22;;;2.20;;
36501;SDS011;25393;46.108;3.390;2023-06-04T06:15:35;7.13;;;2.92;;
36501;SDS011;25393;46.108;3.390;2023-06-04T06:18:04;4.32;;;2.80;;
36501;SDS011;25393;46.108;3.390;2023-06-04T06:20:35;4.28;;;3.03;;
36501;SDS011;25393;46.108;3.390;2023-06-04T06:23:08;7.38;;;3.10;;
36501;SDS011;25393;46.108;3.390;2023-06-04T06:25:34;5.38;;;3.20;;
36501;SDS011;25393;46.108;3.390;2023-06-04T06:28:01;9.75;;;3.35;;
36501;SDS011;25393;46.108;3.390;2023-06-04T06:30:31;7.60;;;3.30;;
36501;SDS011;25393;46.108;3.390;2023-06-04T06:32:59;2.90;;;2.42;;
36501;SDS011;25393;46.108;3.390;2023-06-04T06:35:27;5.90;;;3.20;;
36501;SDS011;25393;46.108;3.390;2023-06-04T06:37:53;4.53;;;3.47;;
36501;SDS011;25393;46.108;3.390;2023-06-04T06:40:20;13.10;;;8.18;;
36501;SDS011;25393;46.108;3.390;2023-06-04T06:42:50;8.07;;;2.85;;
36501;SDS011;25393;46.108;3.390;2023-06-04T06:45:20;8.68;;;4.85;;
36501;SDS011;25393;46.108;3.390;2023-06-04T06:47:46;9.82;;;3.35;;
36501;SDS011;25393;46.108;3.390;2023-06-04T06:50:13;6.45;;;2.88;;
36501;SDS011;25393;46.108;3.390;2023-06-04T06:52:40;4.28;;;2.90;;
36501;SDS011;25393;46.108;3.390;2023-06-04T06:55:07;8.68;;;3.10;;
36501;SDS011;25393;46.108;3.390;2023-06-04T06:57:35;5.82;;;4.78;;
36501;SDS011;25393;46.108;3.390;2023-06-04T07:00:05;9.15;;;2.72;;
36501;SDS011;25393;46.108;3.390;2023-06-04T07:02:35;3.33;;;2.53;;
36501;SDS011;25393;46.108;3.390;2023-06-04T07:05:04;4.18;;;2.63;;
36501;SDS011;25393;46.108;3.390;2023-06-04T07:07:35;5.03;;;3.13;;
36501;SDS011;25393;46.108;3.390;2023-06-04T07:10:03;7.18;;;3.00;;
36501;SDS011;25393;46.108;3.390;2023-06-04T07:12:30;6.60;;;3.00;;
36501;SDS011;25393;46.108;3.390;2023-06-04T07:14:59;12.57;;;5.15;;
36501;SDS011;25393;46.108;3.390;2023-06-04T07:17:29;8.50;;;7.65;;
36501;SDS011;25393;46.108;3.390;2023-06-04T07:19:56;10.55;;;3.97;;
36501;SDS011;25393;46.108;3.390;2023-06-04T07:22:23;6.88;;;6.03;;
36501;SDS011;25393;46.108;3.390;2023-06-04T07:24:49;6.50;;;6.00;;
36501;SDS011;25393;46.108;3.390;2023-06-04T07:27:16;10.43;;;6.03;;
36501;SDS011;25393;46.108;3.390;2023-06-04T07:29:43;8.70;;;6.07;;
36501;SDS011;25393;46.108;3.390;2023-06-04T07:32:13;6.88;;;6.03;;
36501;SDS011;25393;46.108;3.390;2023-06-04T07:34:42;7.68;;;6.70;;
36501;SDS011;25393;46.108;3.390;2023-06-04T07:37:09;7.13;;;6.20;;
36501;SDS011;25393;46.108;3.390;2023-06-04T07:39:36;6.40;;;5.90;;
36501;SDS011;25393;46.108;3.390;2023-06-04T07:42:04;7.25;;;6.28;;
36501;SDS011;25393;46.108;3.390;2023-06-04T07:44:36;7.55;;;6.00;;
36501;SDS011;25393;46.108;3.390;2023-06-04T07:47:04;7.63;;;5.95;;
36501;SDS011;25393;46.108;3.390;2023-06-04T07:49:34;9.20;;;5.88;;
36501;SDS011;25393;46.108;3.390;2023-06-04T07:52:09;6.25;;;5.65;;
36501;SDS011;25393;46.108;3.390;2023-06-04T07:54:36;9.70;;;6.03;;
36501;SDS011;25393;46.108;3.390;2023-06-04T07:57:05;8.25;;;5.97;;
36501;SDS011;25393;46.108;3.390;2023-06-04T07:59:35;6.03;;;5.53;;
36501;SDS011;25393;46.108;3.390;2023-06-04T08:02:05;6.38;;;5.57;;
36501;SDS011;25393;46.108;3.390;2023-06-04T08:04:33;5.68;;;5.18;;
36501;SDS011;25393;46.108;3.390;2023-06-04T08:07:01;5.68;;;5.05;;
36501;SDS011;25393;46.108;3.390;2023-06-04T08:09:29;6.05;;;5.55;;
36501;SDS011;25393;46.108;3.390;2023-06-04T08:11:56;7.38;;;5.53;;
36501;SDS011;25393;46.108;3.390;2023-06-04T08:14:23;6.28;;;5.75;;
36501;SDS011;25393;46.108;3.390;2023-06-04T08:16:53;5.82;;;5.22;;
36501;SDS011;25393;46.108;3.390;2023-06-04T08:19:20;6.40;;;5.80;;
36501;SDS011;25393;46.108;3.390;2023-06-04T08:21:47;7.13;;;5.30;;
36501;SDS011;25393;46.108;3.390;2023-06-04T08:24:14;9.15;;;5.50;;
36501;SDS011;25393;46.108;3.390;2023-06-04T08:26:41;5.95;;;5.15;;
36501;SDS011;25393;46.108;3.390;2023-06-04T08:29:08;6.20;;;5.20;;
36501;SDS011;25393;46.108;3.390;2023-06-04T08:31:38;6.20;;;4.80;;
36501;SDS011;25393;46.108;3.390;2023-06-04T08:34:06;8.13;;;5.63;;
36501;SDS011;25393;46.108;3.390;2023-06-04T08:36:33;6.30;;;5.72;;
36501;SDS011;25393;46.108;3.390;2023-06-04T08:39:08;6.30;;;5.75;;
36501;SDS011;25393;46.108;3.390;2023-06-04T08:41:59;6.57;;;5.40;;
36501;SDS011;25393;46.108;3.390;2023-06-04T08:44:26;6.05;;;5.55;;
36501;SDS011;25393;46.108;3.390;2023-06-04T08:46:54;6.32;;;5.05;;
36501;SDS011;25393;46.108;3.390;2023-06-04T08:49:29;7.13;;;5.43;;
36501;SDS011;25393;46.108;3.390;2023-06-04T08:52:02;5.72;;;5.22;;
36501;SDS011;25393;46.108;3.390;2023-06-04T08:54:33;6.28;;;5.00;;
36501;SDS011;25393;46.108;3.390;2023-06-04T08:57:02;8.13;;;5.45;;
36501;SDS011;25393;46.108;3.390;2023-06-04T08:59:33;7.60;;;5.13;;
36501;SDS011;25393;46.108;3.390;2023-06-04T09:01:59;5.95;;;5.28;;
36501;SDS011;25393;46.108;3.390;2023-06-04T09:04:27;5.93;;;5.32;;
36501;SDS011;25393;46.108;3.390;2023-06-04T09:06:55;6.05;;;5.50;;
36501;SDS011;25393;46.108;3.390;2023-06-04T09:09:24;6.10;;;5.20;;
36501;SDS011;25393;46.108;3.390;2023-06-04T09:11:52;6.00;;;5.40;;
36501;SDS011;25393;46.108;3.390;2023-06-04T09:14:21;6.82;;;5.22;;
36501;SDS011;25393;46.108;3.390;2023-06-04T09:16:48;8.20;;;6.00;;
36501;SDS011;25393;46.108;3.390;2023-06-04T09:19:18;5.72;;;5.22;;
36501;SDS011;25393;46.108;3.390;2023-06-04T09:21:49;6.50;;;5.90;;
36501;SDS011;25393;46.108;3.390;2023-06-04T09:24:22;6.53;;;5.03;;
36501;SDS011;25393;46.108;3.390;2023-06-04T09:26:51;5.82;;;5.13;;
36501;SDS011;25393;46.108;3.390;2023-06-04T09:29:18;7.18;;;5.78;;
36501;SDS011;25393;46.108;3.390;2023-06-04T09:31:45;7.53;;;5.60;;
36501;SDS011;25393;46.108;3.390;2023-06-04T09:34:13;5.80;;;5.20;;
36501;SDS011;25393;46.108;3.390;2023-06-04T09:36:43;6.30;;;5.72;;
36501;SDS011;25393;46.108;3.390;2023-06-04T09:39:16;5.70;;;5.20;;
36501;SDS011;25393;46.108;3.390;2023-06-04T09:41:43;5.88;;;5.28;;
36501;SDS011;25393;46.108;3.390;2023-06-04T09:44:10;5.28;;;4.88;;
36501;SDS011;25393;46.108;3.390;2023-06-04T09:46:41;5.70;;;5.07;;
36501;SDS011;25393;46.108;3.390;2023-06-04T09:49:11;11.77;;;5.82;;
36501;SDS011;25393;46.108;3.390;2023-06-04T09:51:46;6.07;;;5.40;;
36501;SDS011;25393;46.108;3.390;2023-06-04T09:54:14;5.35;;;4.95;;
36501;SDS011;25393;46.108;3.390;2023-06-04T09:56:42;5.60;;;5.10;;
36501;SDS011;25393;46.108;3.390;2023-06-04T09:59:09;8.77;;;4.70;;
36501;SDS011;25393;46.108;3.390;2023-06-04T10:01:39;5.85;;;5.25;;
36501;SDS011;25393;46.108;3.390;2023-06-04T10:04:09;5.10;;;4.60;;
36501;SDS011;25393;46.108;3.390;2023-06-04T10:06:40;5.43;;;4.93;;
36501;SDS011;25393;46.108;3.390;2023-06-04T10:09:08;5.93;;;5.13;;
36501;SDS011;25393;46.108;3.390;2023-06-04T10:11:43;5.47;;;4.97;;
36501;SDS011;25393;46.108;3.390;2023-06-04T10:14:21;6.40;;;5.30;;
36501;SDS011;25393;46.108;3.390;2023-06-04T10:16:50;5.32;;;4.93;;
36501;SDS011;25393;46.108;3.390;2023-06-04T10:19:18;6.40;;;5.10;;
36501;SDS011;25393;46.108;3.390;2023-06-04T10:21:46;5.80;;;5.07;;
36501;SDS011;25393;46.108;3.390;2023-06-04T10:24:19;6.05;;;5.53;;
36501;SDS011;25393;46.108;3.390;2023-06-04T10:26:47;5.63;;;5.13;;
36501;SDS011;25393;46.108;3.390;2023-06-04T10:29:15;5.00;;;4.60;;
36501;SDS011;25393;46.108;3.390;2023-06-04T10:31:44;5.70;;;4.72;;
36501;SDS011;25393;46.108;3.390;2023-06-04T10:34:11;5.35;;;4.43;;
36501;SDS011;25393;46.108;3.390;2023-06-04T10:36:42;5.45;;;4.63;;
36501;SDS011;25393;46.108;3.390;2023-06-04T10:39:11;4.80;;;4.40;;
36501;SDS011;25393;46.108;3.390;2023-06-04T10:41:38;5.90;;;4.68;;
36501;SDS011;25393;46.108;3.390;2023-06-04T10:44:07;5.35;;;4.85;;
36501;SDS011;25393;46.108;3.390;2023-06-04T10:46:50;5.20;;;4.70;;
36501;SDS011;25393;46.108;3.390;2023-06-04T10:49:25;5.47;;;4.53;;
36501;SDS011;25393;46.108;3.390;2023-06-04T10:51:55;8.82;;;5.18;;
36501;SDS011;25393;46.108;3.390;2023-06-04T10:54:23;5.22;;;4.70;;
36501;SDS011;25393;46.108;3.390;2023-06-04T10:56:51;5.20;;;4.70;;
36501;SDS011;25393;46.108;3.390;2023-06-04T10:59:21;5.20;;;4.80;;
36501;SDS011;25393;46.108;3.390;2023-06-04T11:01:51;5.10;;;4.63;;
36501;SDS011;25393;46.108;3.390;2023-06-04T11:04:18;5.80;;;4.25;;
36501;SDS011;25393;46.108;3.390;2023-06-04T11:06:47;4.55;;;4.15;;
36501;SDS011;25393;46.108;3.390;2023-06-04T11:09:14;4.90;;;4.50;;
36501;SDS011;25393;46.108;3.390;2023-06-04T11:11:43;5.70;;;4.72;;
36501;SDS011;25393;46.108;3.390;2023-06-04T11:14:12;4.85;;;4.40;;
36501;SDS011;25393;46.108;3.390;2023-06-04T11:16:39;4.13;;;3.78;;
36501;SDS011;25393;46.108;3.390;2023-06-04T11:19:08;4.20;;;3.90;;
36501;SDS011;25393;46.108;3.390;2023-06-04T11:21:37;4.20;;;3.80;;
36501;SDS011;25393;46.108;3.390;2023-06-04T11:24:04;4.10;;;3.80;;
36501;SDS011;25393;46.108;3.390;2023-06-04T11:28:59;4.10;;;3.80;;
36501;SDS011;25393;46.108;3.390;2023-06-04T11:31:26;4.68;;;4.28;;
36501;SDS011;25393;46.108;3.390;2023-06-04T11:33:53;4.05;;;3.75;;
36501;SDS011;25393;46.108;3.390;2023-06-04T11:36:23;3.85;;;3.55;;
36501;SDS011;25393;46.108;3.390;2023-06-04T11:38:59;4.78;;;3.90;;
36501;SDS011;25393;46.108;3.390;2023-06-04T11:41:27;3.95;;;3.65;;
36501;SDS011;25393;46.108;3.390;2023-06-04T11:43:55;4.05;;;3.60;;
36501;SDS011;25393;46.108;3.390;2023-06-04T11:46:23;5.75;;;4.05;;
36501;SDS011;25393;46.108;3.390;2023-06-04T11:48:50;4.70;;;4.13;;
36501;SDS011;25393;46.108;3.390;2023-06-04T11:51:19;4.15;;;3.47;;
36501;SDS011;25393;46.108;3.390;2023-06-04T11:53:47;4.18;;;3.80;;
36501;SDS011;25393;46.108;3.390;2023-06-04T11:56:14;6.38;;;5.60;;
36501;SDS011;25393;46.108;3.390;2023-06-04T11:58:45;4.50;;;4.10;;
36501;SDS011;25393;46.108;3.390;2023-06-04T12:01:15;4.28;;;3.75;;
36501;SDS011;25393;46.108;3.390;2023-06-04T12:03:42;4.30;;;3.95;;
36501;SDS011;25393;46.108;3.390;2023-06-04T12:06:11;4.60;;;4.20;;
36501;SDS011;25393;46.108;3.390;2023-06-04T12:08:48;4.32;;;3.92;;
36501;SDS011;25393;46.108;3.390;2023-06-04T12:14:03;5.45;;;4.07;;
36501;SDS011;25393;46.108;3.390;2023-06-04T12:16:31;3.75;;;3.55;;
36501;SDS011;25393;46.108;3.390;2023-06-04T12:19:05;4.35;;;3.63;;
36501;SDS011;25393;46.108;3.390;2023-06-04T12:21:32;4.57;;;4.18;;
36501;SDS011;25393;46.108;3.390;2023-06-04T12:24:05;4.57;;;4.10;;
36501;SDS011;25393;46.108;3.390;2023-06-04T12:26:36;4.00;;;3.70;;
36501;SDS011;25393;46.108;3.390;2023-06-04T12:29:10;4.13;;;3.83;;
36501;SDS011;25393;46.108;3.390;2023-06-04T12:31:38;4.82;;;4.43;;
36501;SDS011;25393;46.108;3.390;2023-06-04T12:34:06;4.75;;;3.80;;
36501;SDS011;25393;46.108;3.390;2023-06-04T12:36:33;4.63;;;4.22;;
36501;SDS011;25393;46.108;3.390;2023-06-04T12:39:01;4.82;;;4.47;;
36501;SDS011;25393;46.108;3.390;2023-06-04T12:41:29;4.57;;;4.18;;
36501;SDS011;25393;46.108;3.390;2023-06-04T12:43:57;6.57;;;4.60;;
36501;SDS011;25393;46.108;3.390;2023-06-04T12:46:24;5.07;;;4.60;;
36501;SDS011;25393;46.108;3.390;2023-06-04T12:48:51;4.65;;;4.25;;
36501;SDS011;25393;46.108;3.390;2023-06-04T12:51:19;5.10;;;4.00;;
36501;SDS011;25393;46.108;3.390;2023-06-04T12:53:47;4.43;;;4.05;;
36501;SDS011;25393;46.108;3.390;2023-06-04T12:56:17;5.50;;;4.18;;
36501;SDS011;25393;46.108;3.390;2023-06-04T12:58:47;4.93;;;4.53;;
36501;SDS011;25393;46.108;3.390;2023-06-04T13:01:17;4.53;;;4.13;;
36501;SDS011;25393;46.108;3.390;2023-06-04T13:03:47;4.00;;;3.70;;
36501;SDS011;25393;46.108;3.390;2023-06-04T13:06:16;4.75;;;4.25;;
36501;SDS011;25393;46.108;3.390;2023-06-04T13:08:47;4.40;;;4.10;;
36501;SDS011;25393;46.108;3.390;2023-06-04T13:11:17;5.45;;;4.38;;
36501;SDS011;25393;46.108;3.390;2023-06-04T13:13:49;4.75;;;4.35;;
36501;SDS011;25393;46.108;3.390;2023-06-04T13:16:16;4.88;;;4.45;;
36501;SDS011;25393;46.108;3.390;2023-06-04T13:18:43;5.30;;;4.80;;
36501;SDS011;25393;46.108;3.390;2023-06-04T13:21:12;5.20;;;4.43;;
36501;SDS011;25393;46.108;3.390;2023-06-04T13:23:39;5.57;;;4.80;;
36501;SDS011;25393;46.108;3.390;2023-06-04T13:26:16;11.18;;;4.72;;
36501;SDS011;25393;46.108;3.390;2023-06-04T13:28:44;6.80;;;5.15;;
36501;SDS011;25393;46.108;3.390;2023-06-04T13:31:16;6.72;;;4.38;;
36501;SDS011;25393;46.108;3.390;2023-06-04T13:33:50;4.50;;;4.20;;
36501;SDS011;25393;46.108;3.390;2023-06-04T13:36:16;5.72;;;4.80;;
36501;SDS011;25393;46.108;3.390;2023-06-04T13:38:43;4.75;;;4.45;;
36501;SDS011;25393;46.108;3.390;2023-06-04T13:41:19;6.63;;;4.72;;
36501;SDS011;25393;46.108;3.390;2023-06-04T13:43:47;6.35;;;4.95;;
36501;SDS011;25393;46.108;3.390;2023-06-04T13:46:17;5.38;;;4.97;;
36501;SDS011;25393;46.108;3.390;2023-06-04T13:48:46;5.07;;;4.45;;
36501;SDS011;25393;46.108;3.390;2023-06-04T13:51:13;5.20;;;4.60;;
36501;SDS011;25393;46.108;3.390;2023-06-04T13:53:40;5.15;;;4.13;;
36501;SDS011;25393;46.108;3.390;2023-06-04T13:56:07;4.70;;;4.25;;
36501;SDS011;25393;46.108;3.390;2023-06-04T13:58:33;4.55;;;4.15;;
36501;SDS011;25393;46.108;3.390;2023-06-04T14:01:00;6.28;;;4.43;;
36501;SDS011;25393;46.108;3.390;2023-06-04T14:03:27;5.15;;;4.65;;
36501;SDS011;25393;46.108;3.390;2023-06-04T14:08:53;8.00;;;4.43;;
36501;SDS011;25393;46.108;3.390;2023-06-04T14:11:20;5.20;;;4.80;;
36501;SDS011;25393;46.108;3.390;2023-06-04T14:13:47;5.07;;;4.68;;
36501;SDS011;25393;46.108;3.390;2023-06-04T14:16:14;5.57;;;4.93;;
36501;SDS011;25393;46.108;3.390;2023-06-04T14:18:41;4.97;;;4.68;;
36501;SDS011;25393;46.108;3.390;2023-06-04T14:21:08;5.13;;;4.63;;
36501;SDS011;25393;46.108;3.390;2023-06-04T14:23:35;5.60;;;5.10;;
36501;SDS011;25393;46.108;3.390;2023-06-04T14:26:01;5.20;;;4.80;;
36501;SDS011;25393;46.108;3.390;2023-06-04T14:28:28;5.28;;;4.75;;
36501;SDS011;25393;46.108;3.390;2023-06-04T14:30:55;4.97;;;4.60;;
36501;SDS011;25393;46.108;3.390;2023-06-04T14:33:24;5.25;;;4.85;;
36501;SDS011;25393;46.108;3.390;2023-06-04T14:35:50;5.70;;;4.93;;
36501;SDS011;25393;46.108;3.390;2023-06-04T14:38:17;5.53;;;4.97;;
36501;SDS011;25393;46.108;3.390;2023-06-04T14:40:46;8.30;;;5.10;;
36501;SDS011;25393;46.108;3.390;2023-06-04T14:43:13;6.20;;;5.15;;
36501;SDS011;25393;46.108;3.390;2023-06-04T14:45:43;6.47;;;4.90;;
36501;SDS011;25393;46.108;3.390;2023-06-04T14:48:18;4.95;;;4.53;;
36501;SDS011;25393;46.108;3.390;2023-06-04T14:50:45;5.35;;;4.90;;
36501;SDS011;25393;46.108;3.390;2023-06-04T14:53:13;6.95;;;5.40;;
36501;SDS011;25393;46.108;3.390;2023-06-04T14:55:41;5.45;;;4.95;;
36501;SDS011;25393;46.108;3.390;2023-06-04T14:58:08;7.25;;;4.47;;
36501;SDS011;25393;46.108;3.390;2023-06-04T15:00:35;4.97;;;4.57;;
36501;SDS011;25393;46.108;3.390;2023-06-04T15:03:01;4.55;;;4.15;;
36501;SDS011;25393;46.108;3.390;2023-06-04T15:05:30;4.85;;;4.38;;
36501;SDS011;25393;46.108;3.390;2023-06-04T15:07:58;4.85;;;4.43;;
36501;SDS011;25393;46.108;3.390;2023-06-04T15:10:25;5.32;;;4.85;;
36501;SDS011;25393;46.108;3.390;2023-06-04T15:12:52;4.60;;;4.20;;
36501;SDS011;25393;46.108;3.390;2023-06-04T15:15:23;5.03;;;4.63;;